createdAt,value
2022-11-13T00:01:20.007Z,1.50
2022-11-13T00:03:49.628Z,1.73
2022-11-13T00:06:20.004Z,1.42
2022-11-13T00:08:48.901Z,1.58
2022-11-13T00:11:19.441Z,1.60
2022-11-13T00:13:49.196Z,1.40
2022-11-13T00:16:19.484Z,1.55
2022-11-13T00:18:49.475Z,1.70
2022-11-13T00:21:20.792Z,1.50
2022-11-13T00:23:49.229Z,1.40
2022-11-13T00:26:19.975Z,1.48
2022-11-13T00:28:48.872Z,1.52
2022-11-13T00:31:17.192Z,1.55
2022-11-13T00:34:09.202Z,1.42
2022-11-13T00:36:34.307Z,1.38
2022-11-13T00:39:02.252Z,1.50
2022-11-13T00:41:29.987Z,1.35
2022-11-13T00:43:57.747Z,1.48
2022-11-13T00:46:25.579Z,1.20
2022-11-13T00:48:53.395Z,1.30
2022-11-13T00:51:21.261Z,1.88
2022-11-13T00:53:50.488Z,1.40
2022-11-13T00:56:18.347Z,1.55
2022-11-13T00:58:46.409Z,1.38
2022-11-13T01:01:17.644Z,1.40
2022-11-13T01:03:46.288Z,1.50
2022-11-13T01:06:17.658Z,1.73
2022-11-13T01:08:45.997Z,1.40
2022-11-13T01:11:18.474Z,1.48
2022-11-13T01:13:49.778Z,1.40
2022-11-13T01:16:20.448Z,1.38
2022-11-13T01:18:48.334Z,1.23
2022-11-13T01:21:19.760Z,1.52
2022-11-13T01:23:47.897Z,1.77
2022-11-13T01:26:21.325Z,1.45
2022-11-13T01:28:49.528Z,3.05
2022-11-13T01:31:21.284Z,1.48
2022-11-13T01:33:50.366Z,1.30
2022-11-13T01:36:22.392Z,1.55
2022-11-13T01:38:51.413Z,1.58
2022-11-13T01:41:26.355Z,1.38
2022-11-13T01:43:55.457Z,1.40
2022-11-13T01:46:30.863Z,1.50
2022-11-13T01:49:19.013Z,1.40
2022-11-13T01:51:51.866Z,1.27
2022-11-13T01:54:26.626Z,1.67
2022-11-13T01:56:56.512Z,1.48
2022-11-13T01:59:30.074Z,1.42
2022-11-13T02:01:58.578Z,1.65
2022-11-13T02:04:28.905Z,1.38
2022-11-13T02:07:01.418Z,1.35
2022-11-13T02:09:34.995Z,1.73
2022-11-13T02:12:07.945Z,1.52
2022-11-13T02:14:40.415Z,1.27
2022-11-13T02:17:12.549Z,1.60
2022-11-13T02:19:45.130Z,1.30
2022-11-13T02:22:26.407Z,1.30
2022-11-13T02:24:58.861Z,1.52
2022-11-13T02:27:35.063Z,1.50
2022-11-13T02:30:16.271Z,1.50
2022-11-13T02:32:46.084Z,1.42
2022-11-13T02:35:16.823Z,1.55
2022-11-13T02:37:44.853Z,1.38
2022-11-13T02:40:15.130Z,1.38
2022-11-13T02:42:43.069Z,1.52
2022-11-13T02:45:12.003Z,1.13
2022-11-13T02:47:39.789Z,1.65
2022-11-13T02:50:10.248Z,1.60
2022-11-13T02:52:38.194Z,1.50
2022-11-13T02:55:07.469Z,1.58
2022-11-13T02:57:36.976Z,1.33
2022-11-13T03:00:10.702Z,1.60
2022-11-13T03:02:41.702Z,1.52
2022-11-13T03:05:12.605Z,1.40
2022-11-13T03:07:41.319Z,1.20
2022-11-13T03:10:11.344Z,1.20
2022-11-13T03:12:40.845Z,1.50
2022-11-13T03:15:10.800Z,1.48
2022-11-13T03:17:38.649Z,1.50
2022-11-13T03:20:07.753Z,1.38
2022-11-13T03:22:35.606Z,1.20
2022-11-13T03:25:08.914Z,1.10
2022-11-13T03:27:38.141Z,1.40
2022-11-13T03:30:09.419Z,1.67
2022-11-13T03:32:37.204Z,1.48
2022-11-13T03:35:06.492Z,1.35
2022-11-13T03:37:34.407Z,1.38
2022-11-13T03:40:02.262Z,1.67
2022-11-13T03:42:30.099Z,1.33
2022-11-13T03:44:57.902Z,1.40
2022-11-13T03:47:27.063Z,1.38
2022-11-13T03:49:54.921Z,1.40
2022-11-13T03:52:22.766Z,1.30
2022-11-13T03:54:50.647Z,1.42
2022-11-13T03:57:18.479Z,1.77
2022-11-13T03:59:46.307Z,1.70
2022-11-13T04:02:14.115Z,1.27
2022-11-13T04:04:43.310Z,1.50
2022-11-13T04:07:11.138Z,1.33
2022-11-13T04:09:38.938Z,1.35
2022-11-13T04:12:07.460Z,1.42
2022-11-13T04:14:35.370Z,1.30
2022-11-13T04:17:03.167Z,1.20
2022-11-13T04:19:30.983Z,1.30
2022-11-13T04:22:00.158Z,1.45
2022-11-13T04:24:27.983Z,1.30
2022-11-13T04:26:56.407Z,1.45
2022-11-13T04:29:24.311Z,1.70
2022-11-13T04:31:52.149Z,1.60
2022-11-13T04:34:19.987Z,1.65
2022-11-13T04:36:47.794Z,1.40
2022-11-13T04:39:16.907Z,1.30
2022-11-13T04:42:13.697Z,1.52
2022-11-13T04:44:41.527Z,1.65
2022-11-13T04:47:10.274Z,1.50
2022-11-13T04:49:38.057Z,1.52
2022-11-13T04:52:06.380Z,1.45
2022-11-13T04:54:35.547Z,1.40
2022-11-13T04:57:03.502Z,1.52
2022-11-13T04:59:31.438Z,1.30
2022-11-13T05:01:59.636Z,1.35
2022-11-13T05:04:27.568Z,1.40
2022-11-13T05:06:56.058Z,1.27
2022-11-13T05:09:23.962Z,1.20
2022-11-13T05:11:53.094Z,1.55
2022-11-13T05:14:20.918Z,1.50
2022-11-13T05:16:49.998Z,1.38
2022-11-13T05:19:18.541Z,1.50
2022-11-13T05:21:46.482Z,1.33
2022-11-13T05:24:14.556Z,1.40
2022-11-13T05:26:42.358Z,1.20
2022-11-13T05:29:11.521Z,1.67
2022-11-13T05:31:39.417Z,1.48
2022-11-13T05:34:07.910Z,1.77
2022-11-13T05:36:35.868Z,1.48
2022-11-13T05:39:04.648Z,1.52
2022-11-13T05:41:32.498Z,1.60
2022-11-13T05:44:00.950Z,1.45
2022-11-13T05:46:31.842Z,1.50
2022-11-13T05:49:03.033Z,1.60
2022-11-13T05:51:33.514Z,1.55
2022-11-13T05:54:03.787Z,1.80
2022-11-13T05:56:34.537Z,1.35
2022-11-13T05:59:04.207Z,1.70
2022-11-13T06:01:36.789Z,1.30
2022-11-13T06:04:07.187Z,1.40
2022-11-13T06:06:35.858Z,1.35
2022-11-13T06:09:07.171Z,1.60
2022-11-13T06:11:35.004Z,1.67
2022-11-13T06:14:03.166Z,1.33
2022-11-13T06:16:37.340Z,1.40
2022-11-13T06:19:08.853Z,1.67
2022-11-13T06:21:40.549Z,1.48
2022-11-13T06:24:11.950Z,1.40
2022-11-13T06:26:40.011Z,1.65
2022-11-13T06:29:11.241Z,1.30
2022-11-13T06:31:40.680Z,1.75
2022-11-13T06:34:08.882Z,1.63
2022-11-13T06:36:38.480Z,1.40
2022-11-13T06:39:10.895Z,1.30
2022-11-13T06:41:40.038Z,1.27
2022-11-13T06:44:07.947Z,1.30
2022-11-13T06:46:35.804Z,1.55
2022-11-13T06:49:05.062Z,1.70
2022-11-13T06:51:33.231Z,1.45
2022-11-13T06:54:01.243Z,1.60
2022-11-13T06:56:29.156Z,1.40
2022-11-13T06:58:57.098Z,1.40
2022-11-13T07:01:27.438Z,1.35
2022-11-13T07:03:55.766Z,1.60
2022-11-13T07:06:26.152Z,1.33
2022-11-13T07:08:54.371Z,1.70
2022-11-13T07:11:24.666Z,1.42
2022-11-13T07:13:52.798Z,1.50
2022-11-13T07:16:20.649Z,1.70
2022-11-13T07:18:52.668Z,1.50
2022-11-13T07:21:21.635Z,1.42
2022-11-13T07:23:52.322Z,1.13
2022-11-13T07:26:20.877Z,1.08
2022-11-13T07:28:50.075Z,1.15
2022-11-13T07:31:19.110Z,1.70
2022-11-13T07:33:50.543Z,1.27
2022-11-13T07:36:18.682Z,1.17
2022-11-13T07:38:49.675Z,1.52
2022-11-13T07:43:46.780Z,1.33
2022-11-13T07:46:14.691Z,1.20
2022-11-13T07:48:42.483Z,1.10
2022-11-13T07:51:10.673Z,1.65
2022-11-13T07:53:39.042Z,1.50
2022-11-13T07:56:08.098Z,1.17
2022-11-13T07:58:37.369Z,1.83
2022-11-13T08:01:06.955Z,1.35
2022-11-13T08:03:34.846Z,1.48
2022-11-13T08:06:05.649Z,1.55
2022-11-13T08:08:34.469Z,1.33
2022-11-13T08:11:06.304Z,1.30
2022-11-13T08:13:34.936Z,1.20
2022-11-13T08:16:05.231Z,1.60
2022-11-13T08:18:34.128Z,1.40
2022-11-13T08:21:03.557Z,1.20
2022-11-13T08:23:31.726Z,1.65
2022-11-13T08:25:59.995Z,1.55
2022-11-13T08:28:28.155Z,1.65
2022-11-13T08:30:56.234Z,1.73
2022-11-13T08:33:25.501Z,1.40
2022-11-13T08:35:55.431Z,1.30
2022-11-13T08:38:24.221Z,1.40
2022-11-13T08:40:52.078Z,1.20
2022-11-13T08:43:20.389Z,1.70
2022-11-13T08:45:48.597Z,1.30
2022-11-13T08:48:16.599Z,1.40
2022-11-13T08:50:46.024Z,1.23
2022-11-13T08:53:13.874Z,1.42
2022-11-13T08:55:41.668Z,1.60
2022-11-13T08:58:10.728Z,1.25
2022-11-13T09:00:38.586Z,1.55
2022-11-13T09:03:06.454Z,1.27
2022-11-13T09:05:34.295Z,1.35
2022-11-13T09:08:04.479Z,1.50
2022-11-13T09:10:32.274Z,1.42
2022-11-13T09:13:02.873Z,1.45
2022-11-13T09:15:31.661Z,1.70
2022-11-13T09:18:00.597Z,1.63
2022-11-13T09:20:29.671Z,1.33
2022-11-13T09:22:59.121Z,1.40
2022-11-13T09:25:36.868Z,1.67
2022-11-13T09:28:06.671Z,1.40
2022-11-13T09:30:35.014Z,1.40
2022-11-13T09:33:03.297Z,1.50
2022-11-13T09:35:36.398Z,1.58
2022-11-13T09:38:11.287Z,1.83
2022-11-13T09:40:48.054Z,1.90
2022-11-13T09:43:28.878Z,2.03
2022-11-13T09:46:03.366Z,2.78
2022-11-13T09:48:36.771Z,3.83
2022-11-13T09:51:14.146Z,5.47
2022-11-13T09:53:42.887Z,6.13
2022-11-13T09:56:28.953Z,8.05
2022-11-13T09:59:07.171Z,8.30
2022-11-13T10:01:55.097Z,8.95
2022-11-13T10:04:34.355Z,8.98
2022-11-13T10:07:19.706Z,8.98
2022-11-13T10:10:03.222Z,9.43
2022-11-13T10:12:34.519Z,10.30
2022-11-13T10:15:06.198Z,10.48
2022-11-13T10:17:41.715Z,10.02
2022-11-13T10:20:17.021Z,10.52
2022-11-13T10:22:52.231Z,9.63
2022-11-13T10:25:25.223Z,9.02
2022-11-13T10:27:59.987Z,10.07
2022-11-13T10:30:29.594Z,11.70
2022-11-13T10:33:06.930Z,12.23
2022-11-13T10:35:51.056Z,11.27
2022-11-13T10:38:26.474Z,11.80
2022-11-13T10:41:08.769Z,11.55
2022-11-13T10:43:53.041Z,12.95
2022-11-13T10:46:24.676Z,11.20
2022-11-13T10:48:52.765Z,10.70
2022-11-13T10:51:26.341Z,11.07
2022-11-13T10:53:56.168Z,11.38
2022-11-13T10:56:29.988Z,11.75
2022-11-13T10:59:12.438Z,10.60
2022-11-13T11:01:41.370Z,11.25
2022-11-13T11:04:16.014Z,11.13
2022-11-13T11:09:33.435Z,11.20
2022-11-13T11:12:19.712Z,10.50
2022-11-13T11:15:04.692Z,10.38
2022-11-13T11:17:43.784Z,9.90
2022-11-13T11:20:33.499Z,10.25
2022-11-13T11:23:12.010Z,10.30
2022-11-13T11:25:45.027Z,10.20
2022-11-13T11:28:20.497Z,10.43
2022-11-13T11:31:01.597Z,9.25
2022-11-13T11:33:35.527Z,11.25
2022-11-13T11:36:14.978Z,9.77
2022-11-13T11:38:54.154Z,10.15
2022-11-13T11:41:32.643Z,10.32
2022-11-13T11:44:16.153Z,10.55
2022-11-13T11:46:46.875Z,9.35
2022-11-13T11:49:16.614Z,10.23
2022-11-13T11:52:01.378Z,9.35
2022-11-13T11:54:42.525Z,9.63
2022-11-13T11:57:29.993Z,9.50
2022-11-13T12:00:11.942Z,8.43
2022-11-13T12:03:12.081Z,9.43
2022-11-13T12:05:52.700Z,8.70
2022-11-13T12:08:36.026Z,8.55
2022-11-13T12:11:15.350Z,9.05
2022-11-13T12:13:56.349Z,9.32
2022-11-13T12:19:05.947Z,8.35
2022-11-13T12:21:49.508Z,9.35
2022-11-13T12:24:37.464Z,8.50
2022-11-13T12:27:22.374Z,8.77
2022-11-13T12:30:06.114Z,8.35
2022-11-13T12:32:56.011Z,7.63
2022-11-13T12:35:28.097Z,7.65
2022-11-13T12:38:02.154Z,7.75
2022-11-13T12:40:44.242Z,7.25
2022-11-13T12:43:43.405Z,6.95
2022-11-13T12:46:13.661Z,6.00
2022-11-13T12:48:44.444Z,6.72
2022-11-13T12:51:16.333Z,6.72
2022-11-13T12:53:48.362Z,6.88
2022-11-13T12:56:32.053Z,6.65
2022-11-13T13:02:05.791Z,6.05
2022-11-13T13:04:55.587Z,5.38
2022-11-13T13:08:05.695Z,5.95
2022-11-13T13:10:47.591Z,5.65
2022-11-13T13:13:26.865Z,8.27
2022-11-13T13:15:58.450Z,5.82
2022-11-13T13:18:30.872Z,6.10
2022-11-13T13:21:09.902Z,6.30
2022-11-13T13:23:41.692Z,6.25
2022-11-13T13:26:19.282Z,5.70
2022-11-13T13:28:52.999Z,5.75
2022-11-13T13:31:37.126Z,5.10
2022-11-13T13:34:34.632Z,6.35
2022-11-13T13:37:16.026Z,4.63
2022-11-13T13:40:01.081Z,4.85
2022-11-13T13:42:50.357Z,5.13
2022-11-13T13:45:35.372Z,5.15
2022-11-13T13:48:08.810Z,5.68
2022-11-13T13:50:45.821Z,5.10
2022-11-13T13:53:20.282Z,5.82
2022-11-13T13:55:53.482Z,4.97
2022-11-13T13:58:27.943Z,5.55
2022-11-13T14:01:17.691Z,5.68
2022-11-13T14:03:46.601Z,5.30
2022-11-13T14:06:22.482Z,4.18
2022-11-13T14:08:50.556Z,5.00
2022-11-13T14:11:26.742Z,5.03
2022-11-13T14:13:54.572Z,4.60
2022-11-13T14:16:22.747Z,5.22
2022-11-13T14:18:50.635Z,4.20
2022-11-13T14:21:22.953Z,4.35
2022-11-13T14:23:54.092Z,4.45
2022-11-13T14:26:23.665Z,4.10
2022-11-13T14:28:56.861Z,4.25
2022-11-13T14:31:30.493Z,4.15
2022-11-13T14:34:02.692Z,4.05
2022-11-13T14:36:34.953Z,4.03
2022-11-13T14:39:02.978Z,4.10
2022-11-13T14:41:37.025Z,3.97
2022-11-13T14:44:05.572Z,4.88
2022-11-13T14:46:38.110Z,4.38
2022-11-13T14:49:13.837Z,4.07
2022-11-13T14:51:42.286Z,3.65
2022-11-13T14:57:25.426Z,3.95
2022-11-13T14:59:53.211Z,3.83
2022-11-13T15:02:21.016Z,4.78
2022-11-13T15:04:49.004Z,4.63
2022-11-13T15:07:26.108Z,4.72
2022-11-13T15:09:54.002Z,4.82
2022-11-13T15:12:21.842Z,4.68
2022-11-13T15:14:51.435Z,4.70
2022-11-13T15:17:23.067Z,4.90
2022-11-13T15:19:55.328Z,4.55
2022-11-13T15:22:28.659Z,4.88
2022-11-13T15:24:56.813Z,4.88
2022-11-13T15:27:24.639Z,5.00
2022-11-13T15:29:53.780Z,4.15
2022-11-13T15:32:21.578Z,4.38
2022-11-13T15:34:49.416Z,4.25
2022-11-13T15:37:18.512Z,4.55
2022-11-13T15:39:47.026Z,3.83
2022-11-13T15:42:18.600Z,4.50
2022-11-13T15:44:46.444Z,4.45
2022-11-13T15:47:28.950Z,4.38
2022-11-13T15:50:12.754Z,4.50
2022-11-13T15:52:45.693Z,3.97
2022-11-13T15:55:25.563Z,4.38
2022-11-13T15:57:54.635Z,4.70
2022-11-13T16:00:26.169Z,4.55
2022-11-13T16:02:57.898Z,4.22
2022-11-13T16:05:29.307Z,4.90
2022-11-13T16:07:57.967Z,4.05
2022-11-13T16:10:26.713Z,5.03
2022-11-13T16:12:55.464Z,4.43
2022-11-13T16:15:23.505Z,3.92
2022-11-13T16:17:57.439Z,4.97
2022-11-13T16:20:26.077Z,3.80
2022-11-13T16:22:54.956Z,4.10
2022-11-13T16:25:24.080Z,4.47
2022-11-13T16:27:53.075Z,4.40
2022-11-13T16:30:24.827Z,4.20
2022-11-13T16:32:52.667Z,4.22
2022-11-13T16:35:21.982Z,4.03
2022-11-13T16:37:49.834Z,4.50
2022-11-13T16:40:24.507Z,4.60
2022-11-13T16:42:52.647Z,3.90
2022-11-13T16:45:22.256Z,4.28
2022-11-13T16:47:51.397Z,4.25
2022-11-13T16:50:24.579Z,4.20
2022-11-13T16:52:52.503Z,3.95
2022-11-13T16:55:20.509Z,3.72
2022-11-13T16:57:48.299Z,4.38
2022-11-13T17:00:19.665Z,4.38
2022-11-13T17:02:50.565Z,4.97
2022-11-13T17:07:47.951Z,3.22
2022-11-13T17:10:34.051Z,3.55
2022-11-13T17:13:01.959Z,3.80
2022-11-13T17:15:29.907Z,3.70
2022-11-13T17:17:59.369Z,3.90
2022-11-13T17:20:28.053Z,4.10
2022-11-13T17:22:57.213Z,4.45
2022-11-13T17:25:26.910Z,4.00
2022-11-13T17:27:55.295Z,3.70
2022-11-13T17:30:23.220Z,3.50
2022-11-13T17:32:51.035Z,3.80
2022-11-13T17:35:18.850Z,4.07
2022-11-13T17:37:46.659Z,3.75
2022-11-13T17:40:16.471Z,3.67
2022-11-13T17:42:44.280Z,4.13
2022-11-13T17:45:12.181Z,3.30
2022-11-13T17:47:39.964Z,3.63
2022-11-13T17:50:08.993Z,4.00
2022-11-13T17:52:36.791Z,2.95
2022-11-13T17:55:06.256Z,3.60
2022-11-13T17:57:35.586Z,3.60
2022-11-13T18:00:04.747Z,3.55
2022-11-13T18:02:34.044Z,3.85
2022-11-13T18:05:04.125Z,3.85
2022-11-13T18:07:32.402Z,3.67
2022-11-13T18:10:00.191Z,3.05
2022-11-13T18:12:28.029Z,3.63
2022-11-13T18:14:57.374Z,3.45
2022-11-13T18:17:26.045Z,2.90
2022-11-13T18:20:00.369Z,3.25
2022-11-13T18:22:29.939Z,3.30
2022-11-13T18:24:57.779Z,3.22
2022-11-13T18:27:25.646Z,3.60
2022-11-13T18:29:53.435Z,3.10
2022-11-13T18:32:22.670Z,3.38
2022-11-13T18:34:50.519Z,3.30
2022-11-13T18:37:18.371Z,3.38
2022-11-13T18:39:46.287Z,3.50
2022-11-13T18:42:14.066Z,2.88
2022-11-13T18:44:41.857Z,3.50
2022-11-13T18:47:09.789Z,3.58
2022-11-13T18:49:38.950Z,3.80
2022-11-13T18:52:06.985Z,3.05
2022-11-13T18:54:35.267Z,3.50
2022-11-13T18:57:03.145Z,3.33
2022-11-13T18:59:32.405Z,3.00
2022-11-13T19:02:00.496Z,3.10
2022-11-13T19:04:28.404Z,3.42
2022-11-13T19:06:58.545Z,3.60
2022-11-13T19:09:26.558Z,3.25
2022-11-13T19:11:55.468Z,2.75
2022-11-13T19:14:23.332Z,3.38
2022-11-13T19:16:51.118Z,3.10
2022-11-13T19:19:22.008Z,3.30
2022-11-13T19:24:20.641Z,3.00
2022-11-13T19:26:48.477Z,3.30
2022-11-13T19:29:16.395Z,2.92
2022-11-13T19:31:46.573Z,3.00
2022-11-13T19:34:15.095Z,2.97
2022-11-13T19:36:45.123Z,3.40
2022-11-13T19:39:13.334Z,2.83
2022-11-13T19:41:42.494Z,3.13
2022-11-13T19:44:10.985Z,2.67
2022-11-13T19:46:38.808Z,3.53
2022-11-13T19:49:06.997Z,2.92
2022-11-13T19:51:34.802Z,3.00
2022-11-13T19:54:02.661Z,2.92
2022-11-13T19:56:30.515Z,3.28
2022-11-13T19:58:59.766Z,2.60
2022-11-13T20:01:31.828Z,3.60
2022-11-13T20:04:02.973Z,3.00
2022-11-13T20:09:01.762Z,3.10
2022-11-13T20:11:30.082Z,2.80
2022-11-13T20:13:59.593Z,3.08
2022-11-13T20:16:27.780Z,2.92
2022-11-13T20:18:58.664Z,2.45
2022-11-13T20:23:58.197Z,2.47
2022-11-13T20:26:27.460Z,2.22
2022-11-13T20:28:55.270Z,2.88
2022-11-13T20:31:27.641Z,3.03
2022-11-13T20:33:57.746Z,2.80
2022-11-13T20:36:26.098Z,3.23
2022-11-13T20:38:55.723Z,2.70
2022-11-13T20:41:25.424Z,2.72
2022-11-13T20:43:55.684Z,3.15
2022-11-13T20:46:24.820Z,2.90
2022-11-13T20:48:52.633Z,2.80
2022-11-13T20:51:23.617Z,2.78
2022-11-13T20:56:21.990Z,2.10
2022-11-13T20:58:50.034Z,2.88
2022-11-13T21:01:20.948Z,3.15
2022-11-13T21:06:20.556Z,2.45
2022-11-13T21:08:49.121Z,2.42
2022-11-13T21:11:21.855Z,3.13
2022-11-13T21:13:51.197Z,2.63
2022-11-13T21:16:19.158Z,2.30
2022-11-13T21:18:47.869Z,2.78
2022-11-13T21:21:19.765Z,2.42
2022-11-13T21:23:48.638Z,2.88
2022-11-13T21:26:17.624Z,3.10
2022-11-13T21:28:45.765Z,2.28
2022-11-13T21:31:16.554Z,2.47
2022-11-13T21:33:47.054Z,2.65
2022-11-13T21:36:18.617Z,2.38
2022-11-13T21:38:47.195Z,2.90
2022-11-13T21:41:25.718Z,2.33
2022-11-13T21:43:58.786Z,2.67
2022-11-13T21:46:30.352Z,2.55
2022-11-13T21:49:00.448Z,2.50
2022-11-13T21:51:31.220Z,2.90
2022-11-13T21:53:59.546Z,2.25
2022-11-13T21:56:29.374Z,2.67
2022-11-13T21:58:57.790Z,2.78
2022-11-13T22:01:27.265Z,2.80
2022-11-13T22:03:56.078Z,2.83
2022-11-13T22:06:26.592Z,2.65
2022-11-13T22:08:58.127Z,2.45
2022-11-13T22:11:28.863Z,2.80
2022-11-13T22:13:57.633Z,2.22
2022-11-13T22:16:27.644Z,2.30
2022-11-13T22:18:57.551Z,2.60
2022-11-13T22:21:27.716Z,2.95
2022-11-13T22:23:57.728Z,2.85
2022-11-13T22:26:27.658Z,2.60
2022-11-13T22:28:56.965Z,2.63
2022-11-13T22:31:29.573Z,2.90
2022-11-13T22:33:58.011Z,2.72
2022-11-13T22:36:29.298Z,2.40
2022-11-13T22:38:59.692Z,2.70
2022-11-13T22:41:30.737Z,2.83
2022-11-13T22:46:31.496Z,2.33
2022-11-13T22:49:02.588Z,3.30
2022-11-13T22:51:35.009Z,2.80
2022-11-13T22:54:06.935Z,3.78
2022-11-13T22:56:36.602Z,2.40
2022-11-13T22:59:08.059Z,2.90
2022-11-13T23:01:39.279Z,3.00
2022-11-13T23:04:09.372Z,3.03
2022-11-13T23:06:37.494Z,2.67
2022-11-13T23:09:07.689Z,2.53
2022-11-13T23:11:38.883Z,3.13
2022-11-13T23:14:11.762Z,2.50
2022-11-13T23:16:40.303Z,2.83
2022-11-13T23:19:08.519Z,2.47
2022-11-13T23:21:36.466Z,2.67
2022-11-13T23:24:06.448Z,2.53
2022-11-13T23:26:34.218Z,2.78
2022-11-13T23:29:02.073Z,2.97
2022-11-13T23:31:29.852Z,2.90
2022-11-13T23:33:57.744Z,2.65
2022-11-13T23:36:27.409Z,2.63
2022-11-13T23:38:55.176Z,2.10
2022-11-13T23:41:24.381Z,2.60
2022-11-13T23:44:08.260Z,2.42
2022-11-13T23:46:36.866Z,2.30
2022-11-13T23:49:04.687Z,2.85
2022-11-13T23:51:32.474Z,2.60
2022-11-13T23:54:00.386Z,2.60
2022-11-13T23:56:29.636Z,2.85
2022-11-13T23:58:57.480Z,2.45
